createdAt,value
2018-03-20T00:00:23.726Z,0
2018-03-20T00:01:32.556Z,0
2018-03-20T00:02:41.958Z,0
2018-03-20T00:03:50.784Z,0
2018-03-20T00:04:59.611Z,0
2018-03-20T00:06:08.436Z,0
2018-03-20T00:07:17.463Z,0
2018-03-20T00:08:26.575Z,0
2018-03-20T00:09:35.400Z,0
2018-03-20T00:10:44.225Z,0
2018-03-20T00:11:53.051Z,0
2018-03-20T00:13:02.158Z,0
2018-03-20T00:14:11.575Z,0
2018-03-20T00:15:20.401Z,0
2018-03-20T00:16:29.230Z,0
2018-03-20T00:17:38.333Z,0
2018-03-20T00:18:47.160Z,0
2018-03-20T00:19:56.135Z,0
2018-03-20T00:21:04.964Z,0
2018-03-20T00:22:13.789Z,0
2018-03-20T00:23:22.620Z,0
2018-03-20T00:24:31.448Z,0
2018-03-20T00:25:40.320Z,0
2018-03-20T00:26:49.145Z,0
2018-03-20T00:27:57.974Z,0
2018-03-20T00:29:06.809Z,0
2018-03-20T00:30:15.908Z,0
2018-03-20T00:31:24.834Z,0
2018-03-20T00:32:33.659Z,0
2018-03-20T00:33:42.488Z,0
2018-03-20T00:34:51.594Z,0
2018-03-20T00:36:00.415Z,0
2018-03-20T00:37:09.540Z,0
2018-03-20T00:38:18.367Z,0
2018-03-20T00:39:27.193Z,0
2018-03-20T00:40:36.022Z,0
2018-03-20T00:41:44.847Z,0
2018-03-20T00:42:53.771Z,0
2018-03-20T00:44:02.640Z,0
2018-03-20T00:45:11.751Z,0
2018-03-20T00:46:20.575Z,0
2018-03-20T00:47:29.402Z,0
2018-03-20T00:48:38.758Z,0
2018-03-20T00:49:47.588Z,0
2018-03-20T00:50:56.407Z,0
2018-03-20T00:52:05.236Z,0
2018-03-20T00:53:14.072Z,0
2018-03-20T00:54:23.226Z,0
2018-03-20T00:55:32.056Z,0
2018-03-20T00:56:40.879Z,0
2018-03-20T00:57:49.706Z,0
2018-03-20T00:58:58.530Z,0
2018-03-20T01:00:07.408Z,0
2018-03-20T01:01:16.230Z,0
2018-03-20T01:02:25.056Z,0
2018-03-20T01:03:33.984Z,0
2018-03-20T01:04:42.813Z,0
2018-03-20T01:05:51.939Z,0
2018-03-20T01:07:01.042Z,0
2018-03-20T01:08:09.869Z,0
2018-03-20T01:09:18.698Z,0
2018-03-20T01:10:27.527Z,0
2018-03-20T01:11:36.826Z,0
2018-03-20T01:12:45.651Z,0
2018-03-20T01:13:54.487Z,0
2018-03-20T01:15:03.304Z,0
2018-03-20T01:16:12.139Z,0
2018-03-20T01:17:21.240Z,0
2018-03-20T01:18:30.064Z,0
2018-03-20T01:19:38.891Z,0
2018-03-20T01:20:47.999Z,0
2018-03-20T01:21:56.826Z,0
2018-03-20T01:23:05.756Z,0
2018-03-20T01:24:14.580Z,0
2018-03-20T01:25:23.409Z,0
2018-03-20T01:26:32.233Z,0
2018-03-20T01:27:41.338Z,0
2018-03-20T01:28:50.491Z,0
2018-03-20T01:29:59.319Z,0
2018-03-20T01:31:08.154Z,0
2018-03-20T01:32:17.258Z,0
2018-03-20T01:33:26.085Z,0
2018-03-20T01:34:34.914Z,0
2018-03-20T01:35:43.740Z,0
2018-03-20T01:36:52.566Z,0
2018-03-20T01:38:01.421Z,0
2018-03-20T01:39:10.218Z,0
2018-03-20T01:40:19.044Z,0
2018-03-20T01:41:27.871Z,0
2018-03-20T01:42:36.699Z,0
2018-03-20T01:43:45.524Z,0
2018-03-20T01:44:54.350Z,0
2018-03-20T01:46:03.325Z,0
2018-03-20T01:47:12.148Z,0
2018-03-20T01:48:20.975Z,0
2018-03-20T01:49:29.801Z,0
2018-03-20T01:50:38.628Z,0
2018-03-20T01:51:47.500Z,0
2018-03-20T01:52:56.327Z,0
2018-03-20T01:54:05.153Z,0
2018-03-20T01:55:13.987Z,0
2018-03-20T01:56:22.811Z,0
2018-03-20T01:57:31.735Z,0
2018-03-20T01:58:40.563Z,0
2018-03-20T01:59:49.388Z,0
2018-03-20T02:00:58.217Z,0
2018-03-20T02:02:07.046Z,0
2018-03-20T02:03:15.925Z,0
2018-03-20T02:04:24.755Z,0
2018-03-20T02:05:33.582Z,0
2018-03-20T02:06:42.408Z,0
2018-03-20T02:07:51.238Z,0
2018-03-20T02:09:00.215Z,0
2018-03-20T02:10:09.039Z,0
2018-03-20T02:11:18.145Z,0
2018-03-20T02:12:26.972Z,0
2018-03-20T02:13:35.804Z,0
2018-03-20T02:14:44.955Z,0
2018-03-20T02:15:53.781Z,0
2018-03-20T02:17:02.606Z,0
2018-03-20T02:18:11.433Z,0
2018-03-20T02:19:20.260Z,0
2018-03-20T02:20:29.134Z,0
2018-03-20T02:21:37.962Z,0
2018-03-20T02:22:46.785Z,0
2018-03-20T02:23:55.617Z,0
2018-03-20T02:25:04.443Z,0
2018-03-20T02:26:13.319Z,0
2018-03-20T02:27:22.148Z,0
2018-03-20T02:28:30.972Z,0
2018-03-20T02:29:39.800Z,0
2018-03-20T02:30:48.629Z,0
2018-03-20T02:31:57.507Z,0
2018-03-20T02:33:06.337Z,0
2018-03-20T02:34:15.174Z,0
2018-03-20T02:35:23.994Z,0
2018-03-20T02:36:32.820Z,0
2018-03-20T02:37:41.896Z,0
2018-03-20T02:38:50.725Z,0
2018-03-20T02:39:59.841Z,0
2018-03-20T02:41:08.948Z,0
2018-03-20T02:42:17.775Z,0
2018-03-20T02:43:26.903Z,0
2018-03-20T02:44:36.014Z,0
2018-03-20T02:45:44.838Z,0
2018-03-20T02:46:53.942Z,0
2018-03-20T02:48:03.057Z,0
2018-03-20T02:49:12.415Z,0
2018-03-20T02:50:21.241Z,0
2018-03-20T02:51:30.068Z,0
2018-03-20T02:52:38.897Z,0
2018-03-20T02:53:47.726Z,0
2018-03-20T02:54:56.855Z,0
2018-03-20T02:56:05.683Z,0
2018-03-20T02:57:14.511Z,0
2018-03-20T02:58:23.343Z,0
2018-03-20T02:59:32.163Z,0
2018-03-20T03:00:41.271Z,0
2018-03-20T03:01:50.390Z,0
2018-03-20T03:02:59.208Z,0
2018-03-20T03:04:08.036Z,0
2018-03-20T03:05:16.869Z,0
2018-03-20T03:06:25.698Z,0
2018-03-20T03:07:34.529Z,0
2018-03-20T03:08:43.351Z,0
2018-03-20T03:09:52.178Z,0
2018-03-20T03:11:01.055Z,0
2018-03-20T03:12:10.147Z,0
2018-03-20T03:13:18.958Z,0
2018-03-20T03:14:27.787Z,0
2018-03-20T03:15:36.614Z,0
2018-03-20T03:16:45.438Z,0
2018-03-20T03:17:54.416Z,0
2018-03-20T03:19:03.241Z,0
2018-03-20T03:20:12.071Z,0
2018-03-20T03:21:20.896Z,0
2018-03-20T03:22:29.721Z,0
2018-03-20T03:23:38.696Z,0
2018-03-20T03:24:47.526Z,0
2018-03-20T03:25:56.352Z,0
2018-03-20T03:27:05.178Z,0
2018-03-20T03:28:14.300Z,0
2018-03-20T03:29:23.179Z,0
2018-03-20T03:30:32.295Z,0
2018-03-20T03:31:41.396Z,0
2018-03-20T03:32:50.223Z,0
2018-03-20T03:33:59.048Z,0
2018-03-20T03:35:08.027Z,0
2018-03-20T03:36:16.855Z,0
2018-03-20T03:37:25.687Z,0
2018-03-20T03:38:34.510Z,0
2018-03-20T03:39:43.336Z,0
2018-03-20T03:40:52.464Z,0
2018-03-20T03:42:01.293Z,0
2018-03-20T03:43:10.118Z,0
2018-03-20T03:44:18.945Z,0
2018-03-20T03:45:27.772Z,0
2018-03-20T03:46:36.701Z,0
2018-03-20T03:47:45.528Z,0
2018-03-20T03:48:54.359Z,0
2018-03-20T03:50:03.183Z,0
2018-03-20T03:51:12.009Z,0
2018-03-20T03:52:20.888Z,0
2018-03-20T03:53:29.716Z,0
2018-03-20T03:54:38.541Z,0
2018-03-20T03:55:47.367Z,0
2018-03-20T03:56:56.196Z,0
2018-03-20T03:58:05.126Z,0
2018-03-20T03:59:14.228Z,0
2018-03-20T04:00:23.057Z,0
2018-03-20T04:01:31.883Z,0
2018-03-20T04:02:40.714Z,0
2018-03-20T04:03:49.695Z,0
2018-03-20T04:04:58.520Z,0
2018-03-20T04:06:07.631Z,0
2018-03-20T04:07:16.732Z,0
2018-03-20T04:08:25.559Z,0
2018-03-20T04:09:34.388Z,0
2018-03-20T04:10:43.220Z,0
2018-03-20T04:11:52.044Z,0
2018-03-20T04:13:00.871Z,0
2018-03-20T04:14:09.696Z,0
2018-03-20T04:15:18.523Z,0
2018-03-20T04:16:27.347Z,0
2018-03-20T04:17:36.175Z,0
2018-03-20T04:18:45.004Z,0
2018-03-20T04:19:53.838Z,0
2018-03-20T04:21:02.989Z,0
2018-03-20T04:22:11.814Z,0
2018-03-20T04:23:20.645Z,0
2018-03-20T04:24:29.747Z,0
2018-03-20T04:25:38.575Z,0
2018-03-20T04:26:47.451Z,0
2018-03-20T04:27:56.281Z,0
2018-03-20T04:29:05.108Z,0
2018-03-20T04:30:13.940Z,0
2018-03-20T04:31:23.047Z,0
2018-03-20T04:32:32.173Z,0
2018-03-20T04:33:40.999Z,0
2018-03-20T04:34:49.831Z,0
2018-03-20T04:35:58.655Z,0
2018-03-20T04:37:07.483Z,0
2018-03-20T04:38:16.463Z,0
2018-03-20T04:39:25.288Z,0
2018-03-20T04:40:34.389Z,0
2018-03-20T04:41:43.217Z,0
2018-03-20T04:42:52.042Z,0
2018-03-20T04:44:01.195Z,0
2018-03-20T04:45:10.022Z,0
2018-03-20T04:46:18.845Z,0
2018-03-20T04:47:27.675Z,0
2018-03-20T04:48:36.502Z,0
2018-03-20T04:49:45.632Z,0
2018-03-20T04:50:54.459Z,0
2018-03-20T04:52:03.287Z,0
2018-03-20T04:53:12.116Z,0
2018-03-20T04:54:21.227Z,0
2018-03-20T04:55:30.107Z,0
2018-03-20T04:56:38.936Z,0
2018-03-20T04:57:47.764Z,0
2018-03-20T04:58:56.596Z,0
2018-03-20T05:00:05.422Z,0
2018-03-20T05:01:14.298Z,0
2018-03-20T05:02:23.124Z,0
2018-03-20T05:03:31.953Z,0
2018-03-20T05:04:40.783Z,0
2018-03-20T05:05:50.454Z,0
2018-03-20T05:06:59.288Z,0
2018-03-20T05:08:08.110Z,0
2018-03-20T05:09:16.936Z,0
2018-03-20T05:10:25.762Z,0
2018-03-20T05:11:34.592Z,0
2018-03-20T05:12:43.419Z,0
2018-03-20T05:13:52.246Z,0
2018-03-20T05:15:01.073Z,0
2018-03-20T05:16:10.180Z,0
2018-03-20T05:17:19.018Z,0
2018-03-20T05:18:28.000Z,0
2018-03-20T05:19:36.827Z,0
2018-03-20T05:20:45.655Z,0
2018-03-20T05:21:54.482Z,0
2018-03-20T05:23:03.310Z,0
2018-03-20T05:24:12.239Z,0
2018-03-20T05:25:21.068Z,5
2018-03-20T05:26:29.897Z,5
2018-03-20T05:27:38.723Z,5
2018-03-20T05:28:47.553Z,5
2018-03-20T05:29:56.580Z,5
2018-03-20T05:31:05.408Z,5
2018-03-20T05:32:14.517Z,5
2018-03-20T05:33:23.344Z,5
2018-03-20T05:34:32.517Z,5
2018-03-20T05:35:41.442Z,5
2018-03-20T05:36:50.262Z,5
2018-03-20T05:37:59.371Z,10
2018-03-20T05:39:08.199Z,10
2018-03-20T05:40:17.028Z,10
2018-03-20T05:41:26.008Z,10
2018-03-20T05:42:34.838Z,10
2018-03-20T05:43:43.666Z,10
2018-03-20T05:44:52.495Z,10
2018-03-20T05:46:01.325Z,15
2018-03-20T05:47:10.250Z,15
2018-03-20T05:48:19.079Z,15
2018-03-20T05:49:27.909Z,20
2018-03-20T05:50:36.738Z,20
2018-03-20T05:51:45.565Z,25
2018-03-20T05:52:54.696Z,25
2018-03-20T05:54:03.526Z,30
2018-03-20T05:55:12.349Z,30
2018-03-20T05:56:21.174Z,35
2018-03-20T05:57:30.276Z,40
2018-03-20T05:58:39.459Z,40
2018-03-20T05:59:48.232Z,40
2018-03-20T06:00:57.061Z,45
2018-03-20T06:02:05.889Z,45
2018-03-20T06:03:14.714Z,45
2018-03-20T06:04:23.595Z,45
2018-03-20T06:05:32.422Z,50
2018-03-20T06:06:41.257Z,55
2018-03-20T06:07:50.081Z,55
2018-03-20T06:08:58.911Z,55
2018-03-20T06:10:07.839Z,60
2018-03-20T06:11:16.945Z,60
2018-03-20T06:12:25.774Z,65
2018-03-20T06:13:34.604Z,65
2018-03-20T06:14:43.435Z,65
2018-03-20T06:15:52.542Z,70
2018-03-20T06:17:01.375Z,75
2018-03-20T06:18:10.203Z,80
2018-03-20T06:19:19.029Z,85
2018-03-20T06:20:27.867Z,85
2018-03-20T06:21:36.894Z,85
2018-03-20T06:22:45.726Z,85
2018-03-20T06:23:54.827Z,85
2018-03-20T06:25:03.932Z,90
2018-03-20T06:26:12.764Z,90
2018-03-20T06:27:21.996Z,90
2018-03-20T06:28:31.102Z,100
2018-03-20T06:29:39.932Z,100
2018-03-20T06:30:48.762Z,105
2018-03-20T06:31:57.594Z,110
2018-03-20T06:33:07.129Z,110
2018-03-20T06:34:15.955Z,110
2018-03-20T06:35:24.784Z,115
2018-03-20T06:36:33.613Z,110
2018-03-20T06:37:42.440Z,110
2018-03-20T06:38:51.338Z,105
2018-03-20T06:40:00.146Z,115
2018-03-20T06:41:08.973Z,120
2018-03-20T06:42:17.801Z,130
2018-03-20T06:43:26.629Z,125
2018-03-20T06:44:35.614Z,125
2018-03-20T06:45:44.439Z,140
2018-03-20T06:46:53.268Z,140
2018-03-20T06:48:02.377Z,135
2018-03-20T06:49:11.487Z,140
2018-03-20T06:50:20.593Z,135
2018-03-20T06:51:29.420Z,135
2018-03-20T06:52:38.525Z,135
2018-03-20T06:53:47.631Z,140
2018-03-20T06:54:56.459Z,135
2018-03-20T06:56:05.337Z,155
2018-03-20T06:57:14.171Z,160
2018-03-20T06:58:23.276Z,150
2018-03-20T06:59:32.148Z,155
2018-03-20T07:00:40.937Z,155
2018-03-20T07:01:50.176Z,155
2018-03-20T07:02:59.007Z,165
2018-03-20T07:04:07.840Z,160
2018-03-20T07:05:16.663Z,155
2018-03-20T07:06:25.769Z,160
2018-03-20T07:07:34.598Z,165
2018-03-20T07:08:43.427Z,190
2018-03-20T07:09:52.258Z,150
2018-03-20T07:11:01.089Z,155
2018-03-20T07:12:09.919Z,160
2018-03-20T07:13:18.748Z,170
2018-03-20T07:14:27.576Z,165
2018-03-20T07:15:36.409Z,195
2018-03-20T07:16:45.239Z,185
2018-03-20T07:17:54.071Z,195
2018-03-20T07:19:02.902Z,175
2018-03-20T07:20:11.731Z,195
2018-03-20T07:21:20.558Z,185
2018-03-20T07:22:29.391Z,210
2018-03-20T07:23:38.219Z,195
2018-03-20T07:24:47.049Z,215
2018-03-20T07:25:56.180Z,190
2018-03-20T07:27:04.987Z,165
2018-03-20T07:28:13.817Z,140
2018-03-20T07:29:22.646Z,155
2018-03-20T07:30:31.475Z,150
2018-03-20T07:31:40.406Z,140
2018-03-20T07:32:49.514Z,145
2018-03-20T07:33:58.344Z,140
2018-03-20T07:35:07.172Z,145
2018-03-20T07:36:16.278Z,150
2018-03-20T07:37:25.438Z,140
2018-03-20T07:38:34.268Z,145
2018-03-20T07:39:43.095Z,155
2018-03-20T07:40:51.922Z,150
2018-03-20T07:42:01.031Z,155
2018-03-20T07:43:10.012Z,150
2018-03-20T07:44:18.839Z,150
2018-03-20T07:45:27.670Z,155
2018-03-20T07:46:36.503Z,145
2018-03-20T07:47:45.332Z,155
2018-03-20T07:48:54.176Z,155
2018-03-20T07:50:03.289Z,150
2018-03-20T07:51:12.168Z,150
2018-03-20T07:52:21.018Z,150
2018-03-20T07:53:30.220Z,150
2018-03-20T07:54:39.150Z,150
2018-03-20T07:55:47.983Z,155
2018-03-20T07:56:56.810Z,155
2018-03-20T07:58:05.638Z,155
2018-03-20T17:50:03.167Z,0
2018-03-20T17:51:18.251Z,0
2018-03-20T17:52:27.455Z,0
2018-03-20T17:53:36.653Z,0
2018-03-20T17:54:45.549Z,0
2018-03-20T17:55:54.433Z,0
2018-03-20T17:57:03.565Z,0
2018-03-20T17:58:12.459Z,0
2018-03-20T17:59:21.305Z,0
2018-03-20T18:00:30.140Z,0
2018-03-20T18:01:38.972Z,0
2018-03-20T18:02:48.084Z,0
2018-03-20T18:03:57.195Z,0
2018-03-20T18:05:06.030Z,0
2018-03-20T18:06:14.860Z,0
2018-03-20T18:07:23.694Z,0
2018-03-20T18:08:32.523Z,0
2018-03-20T18:09:41.363Z,0
2018-03-20T18:10:50.194Z,0
2018-03-20T18:11:59.027Z,0
2018-03-20T18:13:07.860Z,0
2018-03-20T18:14:16.697Z,0
2018-03-20T18:15:25.533Z,0
2018-03-20T18:16:34.648Z,0
2018-03-20T18:17:43.690Z,0
2018-03-20T18:18:52.620Z,0
2018-03-20T18:20:01.458Z,0
2018-03-20T18:21:10.283Z,0
2018-03-20T18:22:19.121Z,0
2018-03-20T18:23:28.228Z,0
2018-03-20T18:24:37.068Z,0
2018-03-20T18:25:45.895Z,0
2018-03-20T18:26:54.729Z,0
2018-03-20T18:28:03.576Z,0
2018-03-20T18:29:12.392Z,0
2018-03-20T18:30:21.230Z,0
2018-03-20T18:31:30.063Z,0
2018-03-20T18:32:38.895Z,0
2018-03-20T18:33:47.727Z,0
2018-03-20T18:34:56.561Z,0
2018-03-20T18:36:05.393Z,0
2018-03-20T18:37:14.224Z,0
2018-03-20T18:38:23.058Z,0
2018-03-20T18:39:31.885Z,0
2018-03-20T18:40:40.719Z,0
2018-03-20T18:41:49.548Z,0
2018-03-20T18:42:58.933Z,0
2018-03-20T18:44:08.045Z,0
2018-03-20T18:45:16.876Z,0
2018-03-20T18:46:25.710Z,0
2018-03-20T18:47:34.537Z,0
2018-03-20T18:48:43.368Z,0
2018-03-20T18:49:52.482Z,0
2018-03-20T18:51:01.320Z,0
2018-03-20T18:52:10.506Z,0
2018-03-20T18:53:19.293Z,0
2018-03-20T18:54:28.398Z,0
2018-03-20T18:55:37.228Z,0
2018-03-20T18:56:46.065Z,0
2018-03-20T18:57:55.047Z,0
2018-03-20T18:59:04.216Z,0
2018-03-20T19:00:13.320Z,0
2018-03-20T19:01:22.161Z,0
2018-03-20T19:02:31.334Z,0
2018-03-20T19:03:40.568Z,0
2018-03-20T19:04:49.727Z,0
2018-03-20T19:05:58.856Z,0
2018-03-20T19:07:07.687Z,0
2018-03-20T19:08:16.792Z,0
2018-03-20T19:09:25.723Z,0
2018-03-20T19:10:34.830Z,0
2018-03-20T19:11:43.663Z,0
2018-03-20T19:12:52.494Z,0
2018-03-20T19:14:01.340Z,0
2018-03-20T19:15:10.272Z,0
2018-03-20T19:16:19.161Z,0
2018-03-20T19:17:28.385Z,0
2018-03-20T19:18:37.217Z,0
2018-03-20T19:19:46.069Z,0
2018-03-20T19:20:55.160Z,0
2018-03-20T19:22:03.986Z,0
2018-03-20T19:23:12.817Z,0
2018-03-20T19:24:21.647Z,0
2018-03-20T19:25:30.614Z,0
2018-03-20T19:26:40.204Z,0
2018-03-20T19:27:49.066Z,0
2018-03-20T19:28:57.901Z,0
2018-03-20T19:30:07.047Z,0
2018-03-20T19:31:16.185Z,0
2018-03-20T19:32:25.209Z,0
2018-03-20T19:33:34.038Z,0
2018-03-20T19:34:42.888Z,0
2018-03-20T19:35:51.718Z,0
2018-03-20T19:37:00.855Z,0
2018-03-20T19:38:09.694Z,0
2018-03-20T19:39:18.555Z,0
2018-03-20T19:40:27.392Z,0
2018-03-20T19:41:36.503Z,0
2018-03-20T19:42:45.335Z,0
2018-03-20T19:43:54.491Z,0
2018-03-20T19:45:03.328Z,0
2018-03-20T19:46:12.156Z,0
2018-03-20T19:47:20.999Z,0
2018-03-20T19:48:29.821Z,0
2018-03-20T19:49:38.902Z,0
2018-03-20T19:50:47.729Z,0
2018-03-20T19:51:56.561Z,0
2018-03-20T19:53:05.392Z,0
2018-03-20T19:54:14.575Z,0
2018-03-20T19:55:23.509Z,0
2018-03-20T19:56:32.695Z,0
2018-03-20T19:57:41.545Z,0
2018-03-20T19:58:50.388Z,0
2018-03-20T19:59:59.219Z,0
2018-03-20T20:01:08.204Z,0
2018-03-20T20:02:17.033Z,0
2018-03-20T20:03:25.864Z,0
2018-03-20T20:04:34.715Z,0
2018-03-20T20:05:43.819Z,0
2018-03-20T20:06:52.750Z,0
2018-03-20T20:08:01.583Z,0
2018-03-20T20:09:10.467Z,0
2018-03-20T20:10:19.572Z,0
2018-03-20T20:11:28.410Z,0
2018-03-20T20:12:37.923Z,0
2018-03-20T20:13:46.778Z,0
2018-03-20T20:14:55.900Z,0
2018-03-20T20:16:04.745Z,0
2018-03-20T20:17:13.644Z,0
2018-03-20T20:18:22.761Z,0
2018-03-20T20:19:31.621Z,0
2018-03-20T20:20:41.021Z,0
2018-03-20T20:21:49.888Z,0
2018-03-20T20:22:58.732Z,0
2018-03-20T20:24:07.899Z,0
2018-03-20T20:25:16.733Z,0
2018-03-20T20:26:26.130Z,0
2018-03-20T20:27:34.980Z,0
2018-03-20T20:28:43.811Z,0
2018-03-20T20:29:52.638Z,0
2018-03-20T20:31:01.511Z,0
2018-03-20T20:32:10.699Z,0
2018-03-20T20:33:19.852Z,0
2018-03-20T20:34:28.747Z,0
2018-03-20T20:35:37.710Z,0
2018-03-20T20:36:46.546Z,0
2018-03-20T20:37:55.382Z,0
2018-03-20T20:39:04.209Z,0
2018-03-20T20:40:13.040Z,0
2018-03-20T20:41:21.887Z,0
2018-03-20T20:42:30.735Z,0
2018-03-20T20:43:39.578Z,0
2018-03-20T20:44:48.412Z,0
2018-03-20T20:45:57.242Z,0
2018-03-20T20:47:06.171Z,0
2018-03-20T20:48:15.000Z,0
2018-03-20T20:49:23.829Z,0
2018-03-20T20:50:32.722Z,0
2018-03-20T20:51:41.834Z,0
2018-03-20T20:52:50.957Z,0
2018-03-20T20:53:59.795Z,0
2018-03-20T20:55:08.624Z,0
2018-03-20T20:56:17.484Z,0
2018-03-20T20:57:26.940Z,0
2018-03-20T20:58:35.953Z,0
2018-03-20T20:59:44.798Z,0
2018-03-20T21:00:53.667Z,0
2018-03-20T21:02:02.498Z,0
2018-03-20T21:03:11.603Z,0
2018-03-20T21:04:20.733Z,0
2018-03-20T21:05:29.564Z,0
2018-03-20T21:06:38.684Z,0
2018-03-20T21:07:47.511Z,0
2018-03-20T21:08:56.357Z,0
2018-03-20T21:10:05.343Z,0
2018-03-20T21:11:14.218Z,0
2018-03-20T21:12:23.399Z,0
2018-03-20T21:13:32.238Z,0
2018-03-20T21:14:41.066Z,0
2018-03-20T21:15:50.322Z,0
2018-03-20T21:16:59.166Z,0
2018-03-20T21:18:07.993Z,0
2018-03-20T21:19:16.823Z,0
2018-03-20T21:20:25.657Z,0
2018-03-20T21:21:34.493Z,0
2018-03-20T21:22:43.345Z,0
2018-03-20T21:23:52.448Z,0
2018-03-20T21:25:01.277Z,0
2018-03-20T21:26:10.111Z,0
2018-03-20T21:27:18.966Z,0
2018-03-20T21:28:27.809Z,0
2018-03-20T21:29:36.653Z,0
2018-03-20T21:30:45.493Z,0
2018-03-20T21:31:54.317Z,0
2018-03-20T21:33:03.486Z,0
2018-03-20T21:34:12.385Z,0
2018-03-20T21:35:21.215Z,0
2018-03-20T21:36:30.049Z,0
2018-03-20T21:37:39.154Z,0
2018-03-20T21:38:48.134Z,0
2018-03-20T21:39:56.962Z,0
2018-03-20T21:41:05.797Z,0
2018-03-20T21:42:14.625Z,0
2018-03-20T21:43:23.453Z,0
2018-03-20T21:44:32.280Z,0
2018-03-20T21:45:41.111Z,0
2018-03-20T21:46:49.939Z,0
2018-03-20T21:47:58.770Z,0
2018-03-20T21:49:07.601Z,0
2018-03-20T21:50:16.478Z,0
2018-03-20T21:51:25.305Z,0
2018-03-20T21:52:34.347Z,0
2018-03-20T21:53:43.193Z,0
2018-03-20T21:54:52.089Z,0
2018-03-20T21:56:01.049Z,0
2018-03-20T21:57:09.896Z,0
2018-03-20T21:58:19.032Z,0
2018-03-20T21:59:27.860Z,0
2018-03-20T22:00:36.689Z,0
2018-03-20T22:01:45.566Z,0
2018-03-20T22:02:54.536Z,0
2018-03-20T22:04:03.366Z,0
2018-03-20T22:05:12.192Z,0
2018-03-20T22:06:21.019Z,0
2018-03-20T22:07:29.850Z,0
2018-03-20T22:08:38.678Z,0
2018-03-20T22:09:47.509Z,0
2018-03-20T22:10:56.334Z,0
2018-03-20T22:12:05.445Z,0
2018-03-20T22:13:14.569Z,0
2018-03-20T22:14:23.395Z,0
2018-03-20T22:15:32.226Z,0
2018-03-20T22:16:41.334Z,0
2018-03-20T22:17:50.161Z,0
2018-03-20T22:18:59.086Z,0
2018-03-20T22:20:08.193Z,0
2018-03-20T22:21:17.021Z,0
2018-03-20T22:22:25.852Z,0
2018-03-20T22:23:34.676Z,0
2018-03-20T22:24:43.606Z,0
2018-03-20T22:25:52.434Z,0
2018-03-20T22:27:01.261Z,0
2018-03-20T22:28:10.090Z,0
2018-03-20T22:29:18.923Z,0
2018-03-20T22:30:28.162Z,0
2018-03-20T22:31:36.985Z,0
2018-03-20T22:32:46.088Z,0
2018-03-20T22:33:54.916Z,0
2018-03-20T22:35:04.024Z,0
2018-03-20T22:36:12.853Z,0
2018-03-20T22:37:21.681Z,0
2018-03-20T22:38:30.505Z,0
2018-03-20T22:39:39.334Z,0
2018-03-20T22:40:48.162Z,0
2018-03-20T22:41:57.046Z,0
2018-03-20T22:43:06.146Z,0
2018-03-20T22:44:15.256Z,0
2018-03-20T22:45:24.079Z,0
2018-03-20T22:46:32.910Z,0
2018-03-20T22:47:41.882Z,0
2018-03-20T22:48:50.707Z,0
2018-03-20T22:49:59.535Z,0
2018-03-20T22:51:08.361Z,0
2018-03-20T22:52:17.187Z,0
2018-03-20T22:53:26.319Z,0
2018-03-20T22:54:35.145Z,0
2018-03-20T22:55:44.009Z,0
2018-03-20T22:56:52.801Z,0
2018-03-20T22:58:02.188Z,0
2018-03-20T22:59:11.006Z,0
2018-03-20T23:00:19.835Z,0
2018-03-20T23:01:28.660Z,0
2018-03-20T23:02:37.488Z,0
2018-03-20T23:03:46.590Z,0
2018-03-20T23:04:55.469Z,0
2018-03-20T23:06:04.295Z,0
2018-03-20T23:07:13.118Z,0
2018-03-20T23:08:21.954Z,0
2018-03-20T23:09:30.777Z,0
2018-03-20T23:10:39.652Z,0
2018-03-20T23:11:48.479Z,0
2018-03-20T23:12:57.315Z,0
2018-03-20T23:14:06.133Z,0
2018-03-20T23:15:14.999Z,0
2018-03-20T23:16:24.088Z,0
2018-03-20T23:17:32.913Z,0
2018-03-20T23:18:41.740Z,0
2018-03-20T23:19:50.567Z,0
2018-03-20T23:20:59.393Z,0
2018-03-20T23:22:08.273Z,0
2018-03-20T23:23:17.101Z,0
2018-03-20T23:24:25.925Z,0
2018-03-20T23:25:34.753Z,0
2018-03-20T23:26:43.579Z,0
2018-03-20T23:27:52.407Z,0
2018-03-20T23:29:01.234Z,0
2018-03-20T23:30:10.058Z,0
2018-03-20T23:31:18.886Z,0
2018-03-20T23:32:27.712Z,0
2018-03-20T23:33:36.818Z,0
2018-03-20T23:34:45.645Z,0
2018-03-20T23:35:54.472Z,0
2018-03-20T23:37:03.300Z,0
2018-03-20T23:38:12.677Z,0
2018-03-20T23:39:21.654Z,0
2018-03-20T23:40:30.482Z,0
2018-03-20T23:41:39.307Z,0
2018-03-20T23:42:48.140Z,0
2018-03-20T23:43:56.959Z,0
2018-03-20T23:45:06.038Z,0
2018-03-20T23:46:14.863Z,0
2018-03-20T23:47:23.692Z,0
2018-03-20T23:48:32.518Z,0
2018-03-20T23:49:41.345Z,0
2018-03-20T23:50:50.224Z,0
2018-03-20T23:51:59.051Z,0
2018-03-20T23:53:08.157Z,0
2018-03-20T23:54:16.989Z,0
2018-03-20T23:55:25.817Z,0
2018-03-20T23:56:34.790Z,0
2018-03-20T23:57:43.621Z,0
2018-03-20T23:58:52.449Z,0
